createdAt,value
2023-05-02T00:02:17.829Z,12.27
2023-05-02T00:04:46.894Z,12.21
2023-05-02T00:07:15.048Z,12.12
2023-05-02T00:09:43.339Z,11.98
2023-05-02T00:12:11.701Z,11.84
2023-05-02T00:14:39.861Z,11.68
2023-05-02T00:17:08.114Z,11.69
2023-05-02T00:19:40.283Z,11.79
2023-05-02T00:22:08.601Z,11.84
2023-05-02T00:24:36.965Z,11.82
2023-05-02T00:27:06.282Z,11.78
2023-05-02T00:29:34.303Z,11.67
2023-05-02T00:32:02.392Z,11.56
2023-05-02T00:34:33.952Z,11.49
2023-05-02T00:37:01.968Z,11.34
2023-05-02T00:39:30.094Z,11.29
2023-05-02T00:41:59.496Z,11.23
2023-05-02T00:44:28.793Z,11.41
2023-05-02T00:46:57.217Z,11.45
2023-05-02T00:49:25.354Z,11.39
2023-05-02T00:51:55.002Z,11.23
2023-05-02T00:54:23.153Z,11.16
2023-05-02T00:56:51.900Z,11.16
2023-05-02T00:59:20.500Z,11.29
2023-05-02T01:02:10.930Z,11.45
2023-05-02T01:05:10.797Z,11.52
2023-05-02T01:08:10.854Z,11.60
2023-05-02T01:10:53.360Z,11.71
2023-05-02T01:13:27.293Z,11.74
2023-05-02T01:15:58.517Z,11.80
2023-05-02T01:18:32.638Z,11.89
2023-05-02T01:21:04.748Z,11.94
2023-05-02T01:24:34.829Z,11.95
2023-05-02T01:27:05.813Z,11.86
2023-05-02T01:29:36.410Z,11.65
2023-05-02T01:32:08.371Z,11.39
2023-05-02T01:34:40.914Z,11.23
2023-05-02T01:37:13.049Z,11.23
2023-05-02T01:39:44.026Z,11.03
2023-05-02T01:42:13.751Z,11.02
2023-05-02T01:44:43.379Z,11.16
2023-05-02T01:47:13.670Z,11.25
2023-05-02T01:49:44.066Z,11.15
2023-05-02T01:52:14.174Z,11.12
2023-05-02T01:54:43.589Z,11.12
2023-05-02T01:57:13.208Z,10.91
2023-05-02T01:59:43.893Z,10.76
2023-05-02T02:02:14.593Z,10.64
2023-05-02T02:04:46.277Z,10.66
2023-05-02T02:07:15.088Z,10.73
2023-05-02T02:09:43.253Z,10.84
2023-05-02T02:12:35.605Z,10.90
2023-05-02T02:15:10.455Z,11.01
2023-05-02T02:17:55.691Z,11.00
2023-05-02T02:20:23.885Z,10.93
2023-05-02T02:22:53.544Z,10.93
2023-05-02T02:25:22.267Z,10.78
2023-05-02T02:27:52.494Z,10.75
2023-05-02T02:30:20.882Z,10.95
2023-05-02T02:32:49.166Z,11.20
2023-05-02T02:35:17.626Z,11.18
2023-05-02T02:37:48.677Z,10.90
2023-05-02T02:40:34.764Z,10.81
2023-05-02T02:43:28.024Z,10.57
2023-05-02T02:46:18.134Z,10.64
2023-05-02T02:49:25.129Z,10.82
2023-05-02T02:52:15.376Z,11.02
2023-05-02T02:55:30.110Z,11.06
2023-05-02T02:58:19.108Z,11.32
2023-05-02T03:00:48.204Z,11.32
2023-05-02T03:03:19.024Z,10.93
2023-05-02T03:05:47.861Z,10.86
2023-05-02T03:08:16.409Z,10.85
2023-05-02T03:10:44.678Z,10.79
2023-05-02T03:13:12.954Z,10.57
2023-05-02T03:15:53.966Z,10.71
2023-05-02T03:18:25.577Z,10.90
2023-05-02T03:20:55.184Z,10.77
2023-05-02T03:23:23.661Z,10.75
2023-05-02T03:25:53.093Z,10.82
2023-05-02T03:28:22.386Z,10.93
2023-05-02T03:30:50.870Z,11.15
2023-05-02T03:33:20.487Z,11.65
2023-05-02T03:35:48.580Z,12.30
2023-05-02T03:38:16.976Z,12.76
2023-05-02T03:40:45.706Z,13.03
2023-05-02T03:43:14.167Z,13.09
2023-05-02T03:45:42.401Z,13.64
2023-05-02T03:48:10.893Z,14.19
2023-05-02T03:50:39.470Z,14.42
2023-05-02T03:53:09.537Z,14.61
2023-05-02T03:55:46.564Z,15.06
2023-05-02T03:58:18.504Z,15.78
2023-05-02T04:00:47.252Z,16.20
2023-05-02T04:03:16.673Z,16.76
2023-05-02T04:05:46.453Z,17.53
2023-05-02T04:08:17.407Z,18.38
2023-05-02T04:10:46.288Z,19.63
2023-05-02T04:13:15.189Z,20.46
2023-05-02T04:15:46.550Z,20.51
2023-05-02T04:18:16.904Z,20.94
2023-05-02T04:20:45.667Z,21.13
2023-05-02T04:23:16.272Z,21.22
2023-05-02T04:25:55.051Z,21.38
2023-05-02T04:28:26.746Z,20.81
2023-05-02T04:30:56.402Z,20.74
2023-05-02T04:33:26.198Z,21.62
2023-05-02T04:35:55.719Z,22.47
2023-05-02T04:38:24.719Z,23.09
2023-05-02T04:40:53.137Z,23.31
2023-05-02T04:43:26.732Z,23.35
2023-05-02T04:46:01.442Z,23.17
2023-05-02T04:48:33.849Z,23.27
2023-05-02T04:51:02.547Z,23.35
2023-05-02T04:53:32.030Z,23.36
2023-05-02T04:56:00.204Z,23.51
2023-05-02T04:58:28.811Z,23.84
2023-05-02T05:01:03.478Z,24.04
2023-05-02T05:03:33.463Z,24.34
2023-05-02T05:06:02.678Z,24.48
2023-05-02T05:08:31.411Z,24.70
2023-05-02T05:11:00.911Z,24.65
2023-05-02T05:13:29.401Z,24.59
2023-05-02T05:15:57.483Z,24.66
2023-05-02T05:18:29.226Z,24.13
2023-05-02T05:20:57.398Z,23.35
2023-05-02T05:23:25.578Z,24.31
2023-05-02T05:25:53.744Z,25.06
2023-05-02T05:28:21.914Z,25.60
2023-05-02T05:30:51.932Z,26.06
2023-05-02T05:33:23.398Z,26.67
2023-05-02T05:35:52.474Z,27.01
2023-05-02T05:38:20.529Z,27.17
2023-05-02T05:40:51.378Z,27.31
2023-05-02T05:43:19.874Z,27.19
2023-05-02T05:45:48.100Z,27.26
2023-05-02T05:48:16.541Z,27.27
2023-05-02T05:50:47.279Z,27.14
2023-05-02T05:53:16.244Z,27.40
2023-05-02T05:55:45.876Z,27.45
2023-05-02T05:58:14.371Z,27.60
2023-05-02T06:00:43.963Z,27.51
2023-05-02T06:03:12.511Z,27.65
2023-05-02T06:05:42.485Z,28.01
2023-05-02T06:08:10.772Z,28.30
2023-05-02T06:10:38.939Z,28.21
2023-05-02T06:13:07.476Z,28.44
2023-05-02T06:15:39.282Z,28.60
2023-05-02T06:18:08.241Z,28.33
2023-05-02T06:20:37.375Z,28.04
2023-05-02T06:23:05.593Z,28.02
2023-05-02T06:25:34.174Z,27.97
2023-05-02T06:28:02.357Z,28.06
2023-05-02T06:30:30.528Z,28.13
2023-05-02T06:32:58.633Z,28.17
2023-05-02T06:35:26.870Z,28.37
2023-05-02T06:37:55.010Z,28.59
2023-05-02T06:40:23.078Z,28.59
2023-05-02T06:42:51.398Z,28.43
2023-05-02T06:45:19.814Z,28.26
2023-05-02T06:47:47.905Z,27.95
2023-05-02T06:50:16.146Z,27.59
2023-05-02T06:52:44.069Z,27.56
2023-05-02T06:55:12.279Z,27.55
2023-05-02T06:57:40.629Z,27.54
2023-05-02T07:00:09.909Z,27.19
2023-05-02T07:02:38.139Z,27.24
2023-05-02T07:05:06.746Z,27.51
2023-05-02T07:07:35.394Z,27.84
2023-05-02T07:10:03.939Z,28.00
2023-05-02T07:12:32.105Z,28.11
2023-05-02T07:15:00.555Z,28.31
2023-05-02T07:17:29.182Z,27.95
2023-05-02T07:19:57.231Z,27.91
2023-05-02T07:22:25.646Z,27.39
2023-05-02T07:25:02.646Z,26.79
2023-05-02T07:27:31.032Z,26.24
2023-05-02T07:29:59.382Z,25.29
2023-05-02T07:32:28.085Z,24.08
2023-05-02T07:34:57.123Z,23.76
2023-05-02T07:37:25.532Z,22.27
2023-05-02T07:39:53.827Z,22.20
2023-05-02T07:42:21.990Z,21.58
2023-05-02T07:44:50.616Z,21.75
2023-05-02T07:47:18.872Z,22.51
2023-05-02T07:49:51.399Z,21.96
2023-05-02T07:52:20.808Z,21.70
2023-05-02T07:54:50.055Z,22.13
2023-05-02T07:57:19.427Z,22.51
2023-05-02T07:59:48.131Z,23.34
2023-05-02T08:02:20.101Z,23.18
2023-05-02T08:04:49.322Z,22.73
2023-05-02T08:07:17.656Z,22.18
2023-05-02T08:09:46.348Z,20.95
2023-05-02T08:12:14.522Z,20.94
2023-05-02T08:14:42.688Z,21.09
2023-05-02T08:17:11.182Z,21.01
2023-05-02T08:19:39.264Z,21.94
2023-05-02T08:22:07.649Z,22.60
2023-05-02T08:24:35.811Z,22.21
2023-05-02T08:27:04.185Z,21.22
2023-05-02T08:29:33.590Z,21.10
2023-05-02T08:32:01.982Z,22.20
2023-05-02T08:34:30.416Z,22.30
2023-05-02T08:36:58.651Z,21.72
2023-05-02T08:39:26.850Z,22.13
2023-05-02T08:41:55.262Z,22.63
2023-05-02T08:44:23.435Z,22.59
2023-05-02T08:46:53.524Z,22.57
2023-05-02T08:49:23.157Z,23.23
2023-05-02T08:51:52.796Z,23.58
2023-05-02T08:54:21.905Z,22.80
2023-05-02T08:56:50.069Z,22.43
2023-05-02T08:59:18.320Z,22.40
2023-05-02T09:01:52.834Z,22.71
2023-05-02T09:04:24.782Z,22.01
2023-05-02T09:06:53.209Z,22.45
2023-05-02T09:09:21.562Z,22.69
2023-05-02T09:11:52.184Z,22.25
2023-05-02T09:14:20.351Z,22.77
2023-05-02T09:16:48.669Z,21.72
2023-05-02T09:19:26.784Z,22.34
2023-05-02T09:22:01.419Z,23.20
2023-05-02T09:24:30.048Z,22.71
2023-05-02T09:27:01.191Z,22.42
2023-05-02T09:29:35.701Z,23.24
2023-05-02T09:32:05.791Z,23.18
2023-05-02T09:34:34.727Z,23.65
2023-05-02T09:37:05.592Z,24.11
2023-05-02T09:39:33.673Z,22.86
2023-05-02T09:42:03.682Z,22.99
2023-05-02T09:44:39.468Z,23.08
2023-05-02T09:47:08.713Z,23.01
2023-05-02T09:49:45.143Z,23.28
2023-05-02T09:52:15.565Z,23.67
2023-05-02T09:54:46.779Z,24.15
2023-05-02T09:57:15.436Z,24.24
2023-05-02T09:59:55.509Z,24.40
2023-05-02T10:02:25.254Z,23.43
2023-05-02T10:04:59.193Z,23.72
2023-05-02T10:07:28.273Z,23.53
2023-05-02T10:09:58.836Z,23.83
2023-05-02T10:12:30.207Z,24.22
2023-05-02T10:15:04.430Z,24.27
2023-05-02T10:17:42.365Z,24.41
2023-05-02T10:20:16.598Z,25.07
2023-05-02T10:22:47.571Z,25.47
2023-05-02T10:25:16.309Z,25.03
2023-05-02T10:27:44.774Z,25.11
2023-05-02T10:30:14.927Z,25.31
2023-05-02T10:32:46.210Z,24.92
2023-05-02T10:35:16.776Z,24.77
2023-05-02T10:37:46.221Z,24.72
2023-05-02T10:40:14.899Z,24.74
2023-05-02T10:42:46.128Z,24.48
2023-05-02T10:45:32.273Z,24.16
2023-05-02T10:48:13.699Z,24.33
2023-05-02T10:50:51.294Z,23.59
2023-05-02T10:53:26.137Z,23.51
2023-05-02T10:56:22.408Z,23.69
2023-05-02T10:59:14.318Z,24.03
2023-05-02T11:01:43.009Z,24.13
2023-05-02T11:04:11.740Z,23.64
2023-05-02T11:07:01.344Z,23.73
2023-05-02T11:09:29.423Z,23.68
2023-05-02T11:11:58.267Z,23.41
2023-05-02T11:14:26.329Z,22.95
2023-05-02T11:16:57.796Z,23.07
2023-05-02T11:19:29.184Z,23.47
2023-05-02T11:22:20.788Z,23.15
2023-05-02T11:24:50.615Z,23.17
2023-05-02T11:27:30.952Z,23.60
2023-05-02T11:30:07.015Z,23.61
2023-05-02T11:32:48.857Z,24.14
2023-05-02T11:35:26.266Z,24.65
2023-05-02T11:37:54.912Z,24.89
2023-05-02T11:40:23.894Z,24.12
2023-05-02T11:42:52.170Z,23.87
2023-05-02T11:45:21.285Z,24.37
2023-05-02T11:47:51.629Z,24.21
2023-05-02T11:50:20.176Z,23.72
2023-05-02T11:52:48.857Z,23.70
2023-05-02T11:55:17.444Z,23.84
2023-05-02T11:57:45.592Z,24.03
2023-05-02T12:00:15.439Z,24.26
2023-05-02T12:02:45.773Z,24.32
2023-05-02T12:05:15.110Z,24.60
2023-05-02T12:07:45.840Z,24.75
2023-05-02T12:10:14.589Z,23.71
2023-05-02T12:12:43.593Z,23.78
2023-05-02T12:15:13.051Z,23.49
2023-05-02T12:17:43.686Z,23.57
2023-05-02T12:20:12.802Z,23.68
2023-05-02T12:22:41.344Z,23.36
2023-05-02T12:25:09.871Z,23.52
2023-05-02T12:27:38.501Z,23.59
2023-05-02T12:30:07.247Z,23.51
2023-05-02T12:32:38.723Z,23.76
2023-05-02T12:35:23.242Z,23.96
2023-05-02T12:37:52.748Z,23.87
2023-05-02T12:40:21.228Z,24.03
2023-05-02T12:43:04.019Z,24.23
2023-05-02T12:45:36.042Z,24.30
2023-05-02T12:48:27.226Z,24.32
2023-05-02T12:50:58.491Z,24.30
2023-05-02T12:53:43.992Z,23.88
2023-05-02T12:56:13.548Z,23.71
2023-05-02T12:58:48.282Z,23.59
2023-05-02T13:01:17.102Z,23.63
2023-05-02T13:03:45.512Z,23.75
2023-05-02T13:06:13.871Z,23.48
2023-05-02T13:08:41.992Z,23.49
2023-05-02T13:11:10.426Z,23.47
2023-05-02T13:13:38.753Z,23.27
2023-05-02T13:16:08.204Z,23.26
2023-05-02T13:18:36.691Z,23.15
2023-05-02T13:21:05.421Z,23.13
2023-05-02T13:23:33.556Z,23.42
2023-05-02T13:26:01.650Z,23.66
2023-05-02T13:28:33.473Z,23.36
2023-05-02T13:31:01.915Z,23.56
2023-05-02T13:33:30.595Z,23.77
2023-05-02T13:35:58.631Z,23.98
2023-05-02T13:38:27.139Z,24.08
2023-05-02T13:40:55.485Z,24.16
2023-05-02T13:43:24.434Z,24.36
2023-05-02T13:45:53.006Z,24.57
2023-05-02T13:48:21.373Z,24.67
2023-05-02T13:50:49.463Z,24.55
2023-05-02T13:53:17.541Z,24.33
2023-05-02T13:55:45.815Z,24.11
2023-05-02T13:58:14.051Z,24.12
2023-05-02T14:00:42.291Z,23.88
2023-05-02T14:03:11.495Z,23.63
2023-05-02T14:05:43.931Z,23.20
2023-05-02T14:08:12.603Z,23.19
2023-05-02T14:10:40.678Z,23.28
2023-05-02T14:13:08.994Z,23.41
2023-05-02T14:15:37.822Z,23.58
2023-05-02T14:18:06.369Z,23.62
2023-05-02T14:20:34.648Z,23.53
2023-05-02T14:23:03.205Z,23.49
2023-05-02T14:25:32.377Z,23.55
2023-05-02T14:28:01.805Z,23.33
2023-05-02T14:30:31.438Z,23.21
2023-05-02T14:33:00.171Z,23.23
2023-05-02T14:35:28.547Z,23.20
2023-05-02T14:37:56.624Z,23.08
2023-05-02T14:40:24.644Z,22.94
2023-05-02T14:42:52.833Z,23.00
2023-05-02T14:45:21.702Z,22.91
2023-05-02T14:47:50.753Z,22.57
2023-05-02T14:50:18.986Z,22.56
2023-05-02T14:52:47.405Z,22.57
2023-05-02T14:55:16.189Z,22.59
2023-05-02T14:57:44.409Z,22.61
2023-05-02T15:00:13.274Z,22.64
2023-05-02T15:02:41.437Z,22.55
2023-05-02T15:05:12.175Z,22.50
2023-05-02T15:07:40.919Z,22.49
2023-05-02T15:10:09.388Z,22.47
2023-05-02T15:12:37.820Z,22.56
2023-05-02T15:15:06.671Z,22.61
2023-05-02T15:17:35.079Z,22.63
2023-05-02T15:20:04.589Z,22.62
2023-05-02T15:22:33.150Z,22.49
2023-05-02T15:25:03.077Z,22.46
2023-05-02T15:27:32.772Z,22.47
2023-05-02T15:30:03.126Z,22.42
2023-05-02T15:32:31.889Z,22.57
2023-05-02T15:35:00.602Z,22.67
2023-05-02T15:37:28.869Z,22.54
2023-05-02T15:39:57.087Z,22.40
2023-05-02T15:42:25.216Z,22.26
2023-05-02T15:44:54.144Z,22.26
2023-05-02T15:47:22.795Z,22.24
2023-05-02T15:49:53.995Z,22.18
2023-05-02T15:52:22.217Z,22.15
2023-05-02T15:54:51.912Z,22.09
2023-05-02T15:57:19.986Z,22.05
2023-05-02T15:59:48.298Z,21.96
2023-05-02T16:02:16.545Z,21.95
2023-05-02T16:04:44.708Z,21.95
2023-05-02T16:07:12.975Z,22.00
2023-05-02T16:09:42.397Z,22.04
2023-05-02T16:12:11.256Z,22.03
2023-05-02T16:14:39.605Z,22.01
2023-05-02T16:17:07.722Z,21.94
2023-05-02T16:19:35.911Z,21.93
2023-05-02T16:22:03.943Z,21.87
2023-05-02T16:24:32.039Z,21.85
2023-05-02T16:27:00.884Z,21.77
2023-05-02T16:29:29.025Z,21.68
2023-05-02T16:31:57.302Z,21.59
2023-05-02T16:34:25.968Z,21.47
2023-05-02T16:36:53.975Z,21.35
2023-05-02T16:39:22.709Z,21.34
2023-05-02T16:41:51.105Z,21.29
2023-05-02T16:44:19.277Z,21.24
2023-05-02T16:46:47.583Z,21.21
2023-05-02T16:49:15.853Z,21.07
2023-05-02T16:51:44.243Z,20.98
2023-05-02T16:54:12.600Z,20.91
2023-05-02T16:56:42.447Z,20.85
2023-05-02T16:59:10.876Z,20.76
2023-05-02T17:01:38.920Z,20.68
2023-05-02T17:04:07.682Z,20.56
2023-05-02T17:06:36.019Z,20.40
2023-05-02T17:09:04.405Z,20.25
2023-05-02T17:11:32.668Z,20.12
2023-05-02T17:14:00.713Z,20.01
2023-05-02T17:16:29.065Z,19.84
2023-05-02T17:18:57.306Z,19.69
2023-05-02T17:21:25.464Z,19.59
2023-05-02T17:23:54.460Z,19.49
2023-05-02T17:26:22.635Z,19.38
2023-05-02T17:28:53.643Z,19.23
2023-05-02T17:31:22.472Z,19.09
2023-05-02T17:33:51.142Z,18.99
2023-05-02T17:36:19.152Z,18.86
2023-05-02T17:38:47.363Z,18.78
2023-05-02T17:41:15.514Z,18.69
2023-05-02T17:43:43.735Z,18.62
2023-05-02T17:46:11.864Z,18.51
2023-05-02T17:48:44.585Z,18.43
2023-05-02T17:51:12.919Z,18.36
2023-05-02T17:53:42.778Z,18.29
2023-05-02T17:56:10.955Z,18.25
2023-05-02T17:58:39.123Z,18.21
2023-05-02T18:01:08.842Z,18.18
2023-05-02T18:03:38.117Z,18.14
2023-05-02T18:06:06.452Z,18.12
2023-05-02T18:08:34.558Z,18.05
2023-05-02T18:11:03.668Z,18.00
2023-05-02T18:13:32.554Z,18.00
2023-05-02T18:16:01.640Z,18.00
2023-05-02T18:18:29.839Z,17.99
2023-05-02T18:21:00.775Z,17.98
2023-05-02T18:23:29.526Z,17.96
2023-05-02T18:25:57.646Z,17.91
2023-05-02T18:28:25.915Z,17.84
2023-05-02T18:30:54.089Z,17.78
2023-05-02T18:33:22.216Z,17.67
2023-05-02T18:35:54.197Z,17.57
2023-05-02T18:38:22.509Z,17.48
2023-05-02T18:40:53.334Z,17.41
2023-05-02T18:43:23.961Z,17.32
2023-05-02T18:45:52.043Z,17.22
2023-05-02T18:48:20.843Z,17.17
2023-05-02T18:50:49.070Z,17.17
2023-05-02T18:53:17.099Z,17.16
2023-05-02T18:55:45.209Z,17.18
2023-05-02T18:58:13.307Z,17.19
2023-05-02T19:00:50.905Z,17.13
2023-05-02T19:03:19.512Z,17.12
2023-05-02T19:05:51.465Z,17.10
2023-05-02T19:08:19.507Z,17.08
2023-05-02T19:10:47.900Z,17.08
2023-05-02T19:13:16.989Z,17.10
2023-05-02T19:15:45.319Z,17.10
2023-05-02T19:18:14.392Z,17.12
2023-05-02T19:20:42.942Z,17.14
2023-05-02T19:23:19.006Z,17.18
2023-05-02T19:25:47.992Z,17.16
2023-05-02T19:28:17.013Z,17.17
2023-05-02T19:30:45.473Z,17.19
2023-05-02T19:33:16.324Z,17.22
2023-05-02T19:35:44.477Z,17.20
2023-05-02T19:38:12.755Z,17.14
2023-05-02T19:40:43.356Z,17.11
2023-05-02T19:43:11.607Z,17.08
2023-05-02T19:45:39.872Z,17.04
2023-05-02T19:48:08.323Z,17.04
2023-05-02T19:50:37.891Z,17.05
2023-05-02T19:53:09.036Z,17.04
2023-05-02T19:55:37.484Z,17.01
2023-05-02T19:58:08.183Z,16.99
2023-05-02T20:00:36.663Z,17.00
2023-05-02T20:03:05.623Z,17.02
2023-05-02T20:05:34.045Z,17.03
2023-05-02T20:08:02.512Z,17.03
2023-05-02T20:10:31.463Z,16.98
2023-05-02T20:12:59.630Z,16.96
2023-05-02T20:15:27.959Z,16.93
2023-05-02T20:17:58.130Z,16.89
2023-05-02T20:20:26.665Z,16.87
2023-05-02T20:22:55.251Z,16.84
2023-05-02T20:25:24.019Z,16.81
2023-05-02T20:27:52.818Z,16.79
2023-05-02T20:30:21.163Z,16.69
2023-05-02T20:32:50.391Z,16.61
2023-05-02T20:35:18.678Z,16.57
2023-05-02T20:37:46.915Z,16.46
2023-05-02T20:40:15.107Z,16.47
2023-05-02T20:42:43.951Z,16.53
2023-05-02T20:45:12.712Z,16.61
2023-05-02T20:47:41.064Z,16.58
2023-05-02T20:50:09.653Z,16.57
2023-05-02T20:52:39.107Z,16.50
2023-05-02T20:55:08.160Z,16.41
2023-05-02T20:57:36.284Z,16.32
2023-05-02T21:00:05.357Z,16.24
2023-05-02T21:02:33.691Z,16.17
2023-05-02T21:05:02.061Z,16.10
2023-05-02T21:07:30.237Z,16.08
2023-05-02T21:09:58.718Z,16.04
2023-05-02T21:12:26.773Z,16.03
2023-05-02T21:14:54.986Z,15.97
2023-05-02T21:17:23.243Z,15.90
2023-05-02T21:19:53.941Z,15.89
2023-05-02T21:22:22.189Z,15.89
2023-05-02T21:24:51.060Z,15.86
2023-05-02T21:27:19.474Z,15.79
2023-05-02T21:29:47.995Z,15.77
2023-05-02T21:32:16.273Z,15.70
2023-05-02T21:34:44.342Z,15.66
2023-05-02T21:37:12.632Z,15.59
2023-05-02T21:39:40.826Z,15.54
2023-05-02T21:42:08.823Z,15.52
2023-05-02T21:44:37.227Z,15.45
2023-05-02T21:47:05.399Z,15.33
2023-05-02T21:49:33.484Z,15.16
2023-05-02T21:52:03.513Z,14.93
2023-05-02T21:54:32.656Z,14.82
2023-05-02T21:57:02.912Z,14.79
2023-05-02T21:59:31.438Z,14.82
2023-05-02T22:01:59.760Z,14.88
2023-05-02T22:04:28.266Z,14.90
2023-05-02T22:06:56.645Z,14.99
2023-05-02T22:09:25.426Z,15.02
2023-05-02T22:11:53.899Z,15.07
2023-05-02T22:14:30.179Z,15.04
2023-05-02T22:17:05.502Z,15.06
2023-05-02T22:19:34.224Z,15.09
2023-05-02T22:22:02.464Z,15.10
2023-05-02T22:24:31.255Z,15.12
2023-05-02T22:26:59.298Z,15.15
2023-05-02T22:29:27.757Z,15.18
2023-05-02T22:31:56.157Z,15.16
2023-05-02T22:34:24.490Z,15.10
2023-05-02T22:36:52.972Z,15.06
2023-05-02T22:39:21.716Z,14.98
2023-05-02T22:41:49.896Z,14.90
2023-05-02T22:44:18.085Z,14.81
2023-05-02T22:46:46.277Z,14.77
2023-05-02T22:49:14.520Z,14.78
2023-05-02T22:51:42.582Z,14.75
2023-05-02T22:54:10.673Z,14.65
2023-05-02T22:56:38.736Z,14.56
2023-05-02T22:59:07.011Z,14.46
2023-05-02T23:01:35.302Z,14.40
2023-05-02T23:04:03.709Z,14.37
2023-05-02T23:06:32.038Z,14.31
2023-05-02T23:09:00.420Z,14.29
2023-05-02T23:11:29.403Z,14.28
2023-05-02T23:13:57.580Z,14.28
2023-05-02T23:16:25.844Z,14.27
2023-05-02T23:18:54.044Z,14.17
2023-05-02T23:21:22.305Z,14.09
2023-05-02T23:23:50.395Z,14.01
2023-05-02T23:26:18.858Z,13.87
2023-05-02T23:28:47.027Z,13.72
2023-05-02T23:31:15.236Z,13.61
2023-05-02T23:33:43.707Z,13.59
2023-05-02T23:36:11.803Z,13.58
2023-05-02T23:38:40.592Z,13.50
2023-05-02T23:41:09.023Z,13.46
2023-05-02T23:43:37.295Z,13.45
2023-05-02T23:46:06.374Z,13.43
2023-05-02T23:48:34.651Z,13.44
2023-05-02T23:51:02.693Z,13.44
2023-05-02T23:53:30.890Z,13.47
2023-05-02T23:55:59.140Z,13.46
2023-05-02T23:58:27.270Z,13.38
